createdAt,value
2022-09-24T00:25:52.000Z,1.0
2022-09-24T00:55:55.000Z,0.0
2022-09-24T01:26:00.942Z,1
2022-09-24T01:56:11.948Z,2
2022-09-24T02:26:18.104Z,1
2022-09-24T02:56:20.067Z,0
2022-09-24T03:26:30.929Z,0
2022-09-24T03:56:37.011Z,0
2022-09-24T04:26:39.238Z,0
2022-09-24T04:56:44.107Z,0
2022-09-24T05:26:47.125Z,5
2022-09-24T05:56:47.000Z,15.0
2022-09-24T06:26:48.000Z,46.0
2022-09-24T06:56:51.328Z,31
2022-09-24T07:26:52.151Z,41
2022-09-24T07:57:02.428Z,54
2022-09-24T08:27:06.388Z,88
2022-09-24T08:57:14.276Z,78
2022-09-24T09:27:15.194Z,152
2022-09-24T09:57:22.303Z,151
2022-09-24T10:27:32.138Z,277
2022-09-24T10:57:34.032Z,175
2022-09-24T11:27:35.980Z,104
2022-09-24T11:57:39.032Z,57
2022-09-24T12:27:42.075Z,49
2022-09-24T12:57:46.007Z,171
2022-09-24T13:27:50.148Z,224
2022-09-24T13:57:59.190Z,142
2022-09-24T14:28:00.050Z,159
2022-09-24T14:58:09.222Z,151
2022-09-24T15:28:10.165Z,220
2022-09-24T15:58:14.136Z,41
2022-09-24T16:28:15.234Z,11
2022-09-24T16:58:17.185Z,2
2022-09-24T17:28:19.258Z,0
2022-09-24T17:58:26.206Z,0
2022-09-24T18:28:28.557Z,0
2022-09-24T18:58:31.321Z,0
2022-09-24T19:28:33.160Z,0
2022-09-24T19:58:34.382Z,0
2022-09-24T20:28:36.396Z,0
2022-09-24T20:58:38.235Z,1
2022-09-24T21:28:48.344Z,0
2022-09-24T21:58:49.267Z,0
2022-09-24T22:28:55.167Z,0
2022-09-24T22:58:58.235Z,1
2022-09-24T23:28:59.190Z,0
2022-09-24T23:59:00.337Z,0
